createdAt,value
2022-11-30T00:02:08.688Z,99721.33
2022-11-30T00:05:26.087Z,99717.42
2022-11-30T00:08:42.162Z,99720.08
2022-11-30T00:11:58.187Z,99716.31
2022-11-30T00:15:18.215Z,99719.84
2022-11-30T00:18:34.648Z,99732.38
2022-11-30T00:21:50.833Z,99728.66
2022-11-30T00:25:06.958Z,99729.24
2022-11-30T00:28:23.718Z,99727.55
2022-11-30T00:31:39.761Z,99725.05
2022-11-30T00:34:55.784Z,99726.73
2022-11-30T00:38:13.078Z,99726.16
2022-11-30T00:41:31.949Z,99738.26
2022-11-30T00:44:48.371Z,99737.65
2022-11-30T00:48:04.755Z,99742.95
2022-11-30T00:51:21.658Z,99736.15
2022-11-30T00:54:38.445Z,99733.30
2022-11-30T00:57:54.595Z,99724.72
2022-11-30T01:01:11.436Z,99721.38
2022-11-30T01:04:30.309Z,99724.80
2022-11-30T01:07:46.521Z,99729.34
2022-11-30T01:11:03.702Z,99719.59
2022-11-30T01:14:19.888Z,99733.55
2022-11-30T01:17:36.758Z,99734.73
2022-11-30T01:20:53.908Z,99731.86
2022-11-30T01:24:11.510Z,99735.99
2022-11-30T01:27:27.622Z,99745.73
2022-11-30T01:30:43.784Z,99729.34
2022-11-30T01:34:02.177Z,99729.34
2022-11-30T01:37:18.384Z,99728.58
2022-11-30T01:40:34.582Z,99725.14
2022-11-30T01:43:54.081Z,99731.28
2022-11-30T01:47:14.989Z,99729.44
2022-11-30T01:50:35.172Z,99723.22
2022-11-30T01:53:51.282Z,99727.51
2022-11-30T01:57:11.787Z,99731.86
2022-11-30T02:00:29.158Z,99740.59
2022-11-30T02:03:52.109Z,99746.56
2022-11-30T02:07:11.238Z,99747.42
2022-11-30T02:10:30.851Z,99751.69
2022-11-30T02:14:08.314Z,99757.75
2022-11-30T02:17:30.314Z,99762.05
2022-11-30T02:21:09.545Z,99756.56
2022-11-30T02:24:48.713Z,99756.50
2022-11-30T02:28:18.813Z,99756.83
2022-11-30T02:31:40.339Z,99757.75
2022-11-30T02:34:58.158Z,99755.88
2022-11-30T02:38:14.486Z,99756.83
2022-11-30T02:41:34.970Z,99757.84
2022-11-30T02:44:51.198Z,99756.06
2022-11-30T02:48:13.064Z,99755.48
2022-11-30T02:51:32.462Z,99753.70
2022-11-30T02:54:47.328Z,99767.83
2022-11-30T02:58:03.490Z,99758.58
2022-11-30T03:01:21.489Z,99770.67
2022-11-30T03:04:37.816Z,99764.73
2022-11-30T03:07:53.990Z,99762.95
2022-11-30T03:11:14.002Z,99758.75
2022-11-30T03:14:30.280Z,99770.00
2022-11-30T03:17:46.696Z,99766.64
2022-11-30T03:21:02.728Z,99774.86
2022-11-30T03:24:19.511Z,99778.23
2022-11-30T03:27:36.130Z,99774.92
2022-11-30T03:30:58.424Z,99774.95
2022-11-30T03:34:14.948Z,99776.06
2022-11-30T03:37:31.233Z,99784.89
2022-11-30T03:40:47.565Z,99784.45
2022-11-30T03:44:04.189Z,99788.65
2022-11-30T03:47:20.226Z,99775.45
2022-11-30T03:50:36.424Z,99786.28
2022-11-30T03:53:52.678Z,99781.94
2022-11-30T03:57:09.256Z,99786.91
2022-11-30T04:00:28.022Z,99786.81
2022-11-30T04:03:45.469Z,99786.63
2022-11-30T04:07:04.761Z,99795.36
2022-11-30T04:10:21.912Z,99787.55
2022-11-30T04:13:40.198Z,99784.21
2022-11-30T04:16:56.505Z,99784.03
2022-11-30T04:20:14.600Z,99791.84
2022-11-30T04:23:31.936Z,99793.77
2022-11-30T04:26:48.064Z,99795.55
2022-11-30T04:30:04.194Z,99794.45
2022-11-30T04:33:21.577Z,99808.00
2022-11-30T04:36:37.799Z,99805.30
2022-11-30T04:39:54.208Z,99801.10
2022-11-30T04:43:10.285Z,99800.58
2022-11-30T04:46:26.486Z,99799.50
2022-11-30T04:49:42.661Z,99809.98
2022-11-30T04:52:58.791Z,99806.41
2022-11-30T04:56:17.366Z,99807.47
2022-11-30T04:59:33.417Z,99814.69
2022-11-30T05:02:52.967Z,99813.77
2022-11-30T05:06:07.969Z,99811.31
2022-11-30T05:09:24.840Z,99817.20
2022-11-30T05:12:42.036Z,99818.89
2022-11-30T05:15:59.146Z,99818.98
2022-11-30T05:19:15.978Z,99824.09
2022-11-30T05:22:32.856Z,99817.38
2022-11-30T05:25:50.337Z,99821.08
2022-11-30T05:29:06.537Z,99811.31
2022-11-30T05:32:23.864Z,99820.13
2022-11-30T05:35:40.589Z,99818.30
2022-11-30T05:38:57.086Z,99817.53
2022-11-30T05:42:13.540Z,99818.53
2022-11-30T05:45:30.373Z,99816.02
2022-11-30T05:48:46.966Z,99817.11
2022-11-30T05:52:03.117Z,99804.23
2022-11-30T05:55:19.888Z,99819.12
2022-11-30T05:58:36.497Z,99818.03
2022-11-30T06:01:53.536Z,99819.86
2022-11-30T06:05:11.636Z,99823.55
2022-11-30T06:08:27.808Z,99833.05
2022-11-30T06:11:45.342Z,99833.97
2022-11-30T06:15:01.606Z,99839.00
2022-11-30T06:18:20.424Z,99837.40
2022-11-30T06:21:38.448Z,99831.45
2022-11-30T06:24:55.177Z,99835.42
2022-11-30T06:28:14.527Z,99839.80
2022-11-30T06:31:28.642Z,99846.84
2022-11-30T06:34:44.974Z,99840.80
2022-11-30T06:38:02.264Z,99847.61
2022-11-30T06:41:20.005Z,99852.05
2022-11-30T06:44:39.393Z,99851.98
2022-11-30T06:47:56.145Z,99856.25
2022-11-30T06:51:17.718Z,99852.05
2022-11-30T06:54:36.226Z,99852.91
2022-11-30T06:57:52.548Z,99845.92
2022-11-30T07:01:11.061Z,99848.53
2022-11-30T07:04:27.937Z,99859.16
2022-11-30T07:07:45.237Z,99858.94
2022-11-30T07:11:01.755Z,99859.94
2022-11-30T07:14:18.555Z,99862.02
2022-11-30T07:17:35.493Z,99866.23
2022-11-30T07:20:52.605Z,99862.77
2022-11-30T07:24:23.149Z,99868.59
2022-11-30T07:27:39.411Z,99868.28
2022-11-30T07:30:55.632Z,99864.33
2022-11-30T07:34:16.452Z,99863.08
2022-11-30T07:37:33.411Z,99860.80
2022-11-30T07:40:52.804Z,99863.91
2022-11-30T07:44:11.233Z,99869.43
2022-11-30T07:47:28.606Z,99880.36
2022-11-30T07:50:45.234Z,99878.62
2022-11-30T07:54:03.252Z,99880.45
2022-11-30T07:57:20.713Z,99879.45
2022-11-30T08:00:37.189Z,99884.83
2022-11-30T08:03:54.227Z,99881.36
2022-11-30T08:07:10.571Z,99891.03
2022-11-30T08:10:27.812Z,99885.66
2022-11-30T08:13:44.903Z,99886.48
2022-11-30T08:17:01.250Z,99887.25
2022-11-30T08:20:19.949Z,99887.17
2022-11-30T08:23:38.929Z,99886.25
2022-11-30T08:26:57.705Z,99887.86
2022-11-30T08:30:16.515Z,99889.63
2022-11-30T08:33:32.956Z,99898.27
2022-11-30T08:36:51.984Z,99894.06
2022-11-30T08:40:12.576Z,99901.19
2022-11-30T08:43:31.919Z,99906.39
2022-11-30T08:46:52.814Z,99896.53
2022-11-30T08:50:10.259Z,99897.36
2022-11-30T08:53:27.117Z,99902.56
2022-11-30T08:56:43.729Z,99906.77
2022-11-30T09:00:01.624Z,99900.88
2022-11-30T09:03:17.678Z,99898.13
2022-11-30T09:06:36.216Z,99902.56
2022-11-30T09:09:52.723Z,99910.38
2022-11-30T09:13:08.847Z,99908.68
2022-11-30T09:16:26.652Z,99910.38
2022-11-30T09:19:42.807Z,99907.86
2022-11-30T09:23:01.351Z,99907.77
2022-11-30T09:26:20.868Z,99899.88
2022-11-30T09:29:35.201Z,99904.02
2022-11-30T09:32:51.085Z,99898.13
2022-11-30T09:36:10.486Z,99903.02
2022-11-30T09:39:24.449Z,99894.95
2022-11-30T09:42:54.742Z,99896.81
2022-11-30T09:46:14.145Z,99892.20
2022-11-30T09:49:34.972Z,99889.69
2022-11-30T09:52:55.467Z,99889.09
2022-11-30T09:56:21.139Z,99885.42
2022-11-30T09:59:40.632Z,99887.23
2022-11-30T10:03:03.896Z,99881.20
2022-11-30T10:06:24.957Z,99880.02
2022-11-30T10:10:15.908Z,99868.69
2022-11-30T10:13:30.732Z,99875.61
2022-11-30T10:16:53.348Z,99872.16
2022-11-30T10:20:37.393Z,99875.03
2022-11-30T10:24:23.697Z,99872.84
2022-11-30T10:27:50.034Z,99870.56
2022-11-30T10:31:07.935Z,99867.40
2022-11-30T10:34:30.222Z,99872.52
2022-11-30T10:37:49.191Z,99862.78
2022-11-30T10:41:09.946Z,99859.26
2022-11-30T10:44:31.483Z,99862.88
2022-11-30T10:47:51.810Z,99863.11
2022-11-30T10:51:09.855Z,99862.28
2022-11-30T10:54:28.722Z,99860.36
2022-11-30T10:57:45.084Z,99859.44
2022-11-30T11:01:08.995Z,99861.09
2022-11-30T11:04:28.616Z,99851.77
2022-11-30T11:08:04.484Z,99845.64
2022-11-30T11:11:39.647Z,99850.67
2022-11-30T11:14:56.118Z,99855.73
2022-11-30T11:18:44.952Z,99854.82
2022-11-30T11:22:02.672Z,99845.31
2022-11-30T11:25:27.177Z,99852.36
2022-11-30T11:28:48.535Z,99855.73
2022-11-30T11:32:23.381Z,99861.86
2022-11-30T11:35:46.976Z,99860.03
2022-11-30T11:39:03.686Z,99852.36
2022-11-30T11:42:27.436Z,99855.06
2022-11-30T11:45:46.317Z,99850.67
2022-11-30T11:49:10.425Z,99854.73
2022-11-30T11:52:29.041Z,99846.56
2022-11-30T11:55:46.963Z,99857.09
2022-11-30T11:59:07.528Z,99860.53
2022-11-30T12:02:32.015Z,99856.23
2022-11-30T12:05:54.471Z,99852.29
2022-11-30T12:09:17.752Z,99857.27
2022-11-30T12:12:35.526Z,99852.81
2022-11-30T12:16:02.865Z,99861.80
2022-11-30T12:19:25.360Z,99859.76
2022-11-30T12:22:56.673Z,99861.30
2022-11-30T12:53:40.213Z,99862.47
2022-11-30T13:09:13.455Z,99866.77
2022-11-30T13:18:39.706Z,99858.03
2022-11-30T13:27:03.197Z,99856.77
2022-11-30T13:30:33.544Z,99860.63
2022-11-30T13:34:04.407Z,99864.93
2022-11-30T13:37:34.164Z,99853.73
2022-11-30T13:41:03.138Z,99851.90
2022-11-30T13:44:37.725Z,99849.11
2022-11-30T13:47:59.039Z,99856.93
2022-11-30T13:51:18.853Z,99848.09
2022-11-30T13:54:55.167Z,99847.27
2022-11-30T13:58:18.438Z,99843.66
2022-11-30T14:04:58.905Z,99841.72
2022-11-30T14:08:46.188Z,99844.23
2022-11-30T14:12:03.205Z,99841.63
2022-11-30T14:16:05.183Z,99848.92
2022-11-30T14:19:21.806Z,99846.59
2022-11-30T14:22:39.755Z,99842.88
2022-11-30T14:25:59.693Z,99846.99
2022-11-30T14:29:22.855Z,99839.02
2022-11-30T14:32:49.253Z,99837.24
2022-11-30T14:36:08.011Z,99847.52
2022-11-30T14:39:40.701Z,99846.26
2022-11-30T14:43:04.863Z,99838.10
2022-11-30T14:46:28.350Z,99842.30
2022-11-30T14:49:52.949Z,99841.29
2022-11-30T14:53:28.235Z,99850.61
2022-11-30T14:56:48.994Z,99845.92
2022-11-30T15:00:06.621Z,99852.73
2022-11-30T15:03:38.976Z,99843.31
2022-11-30T15:07:12.536Z,99844.39
2022-11-30T15:10:43.266Z,99845.92
2022-11-30T15:14:04.692Z,99843.56
2022-11-30T15:17:25.509Z,99843.13
2022-11-30T15:20:50.846Z,99843.22
2022-11-30T15:24:09.539Z,99851.47
2022-11-30T15:27:31.184Z,99863.55
2022-11-30T15:30:51.291Z,99861.47
2022-11-30T15:34:09.005Z,99855.23
2022-11-30T15:37:38.753Z,99869.19
2022-11-30T15:41:02.926Z,99860.55
2022-11-30T15:44:30.895Z,99870.63
2022-11-30T15:47:48.392Z,99874.06
2022-11-30T15:51:05.364Z,99880.97
2022-11-30T15:54:22.747Z,99871.37
2022-11-30T15:58:09.803Z,99881.70
2022-11-30T16:01:34.333Z,99882.47
2022-11-30T16:05:28.496Z,99883.97
2022-11-30T16:08:49.326Z,99878.84
2022-11-30T16:12:09.826Z,99890.48
2022-11-30T16:15:31.222Z,99877.26
2022-11-30T16:18:51.030Z,99895.42
2022-11-30T16:22:11.456Z,99889.72
2022-11-30T16:25:34.234Z,99901.06
2022-11-30T16:28:51.058Z,99894.84
2022-11-30T16:32:09.082Z,99890.39
2022-11-30T16:35:33.788Z,99897.11
2022-11-30T16:38:50.555Z,99902.99
2022-11-30T16:42:08.482Z,99899.13
2022-11-30T16:45:29.945Z,99894.16
2022-11-30T16:48:47.024Z,99898.45
2022-11-30T16:52:06.983Z,99896.77
2022-11-30T16:55:30.383Z,99895.08
2022-11-30T16:58:50.485Z,99900.48
2022-11-30T17:02:07.461Z,99900.39
2022-11-30T17:05:27.005Z,99901.41
2022-11-30T17:08:43.739Z,99904.02
2022-11-30T17:12:00.475Z,99896.95
2022-11-30T17:15:24.127Z,99902.27
2022-11-30T17:18:41.246Z,99903.00
2022-11-30T17:21:57.922Z,99904.02
2022-11-30T18:02:12.005Z,99911.01
2022-11-30T18:06:41.945Z,99910.73
2022-11-30T18:11:03.942Z,99914.97
2022-11-30T18:15:32.687Z,99908.64
2022-11-30T18:19:54.500Z,99910.09
2022-11-30T18:48:01.592Z,99929.51
2022-11-30T18:56:14.951Z,99936.81
2022-11-30T19:32:52.852Z,99936.98
2022-11-30T19:38:10.607Z,99939.78
2022-11-30T19:59:55.487Z,99924.20
2022-11-30T20:16:53.472Z,99933.36
2022-11-30T20:53:58.567Z,99918.48
2022-11-30T20:57:15.622Z,99924.34
2022-11-30T21:00:32.232Z,99928.58
2022-11-30T21:03:49.238Z,99925.02
2022-11-30T21:07:09.052Z,99924.00
2022-11-30T21:10:26.171Z,99922.93
2022-11-30T21:13:43.718Z,99920.22
2022-11-30T21:17:00.143Z,99919.30
2022-11-30T21:20:18.985Z,99934.19
2022-11-30T21:23:36.129Z,99923.66
2022-11-30T21:26:52.855Z,99920.98
2022-11-30T21:30:10.030Z,99933.08
2022-11-30T21:33:26.159Z,99938.30
2022-11-30T21:36:44.519Z,99935.11
2022-11-30T21:40:01.026Z,99930.75
2022-11-30T21:43:21.099Z,99923.85
2022-11-30T21:46:37.850Z,99936.13
2022-11-30T21:49:54.032Z,99929.16
2022-11-30T21:53:10.095Z,99925.70
2022-11-30T21:56:29.955Z,99923.02
2022-11-30T21:59:46.419Z,99921.00
2022-11-30T22:03:02.944Z,99914.68
2022-11-30T22:06:22.816Z,99912.65
2022-11-30T22:09:39.165Z,99913.76
2022-11-30T22:12:55.293Z,99914.34
2022-11-30T22:16:15.329Z,99915.10
2022-11-30T22:19:31.783Z,99916.59
2022-11-30T22:22:47.877Z,99919.05
2022-11-30T22:26:16.036Z,99914.56
2022-11-30T22:29:32.715Z,99916.25
2022-11-30T22:32:50.154Z,99917.08
2022-11-30T22:36:07.513Z,99915.23
2022-11-30T22:39:26.329Z,99914.22
2022-11-30T22:42:43.443Z,99908.17
2022-11-30T22:45:59.450Z,99909.25
2022-11-30T22:49:21.176Z,99912.53
2022-11-30T22:53:01.405Z,99908.17
2022-11-30T22:55:55.042Z,99911.61
2022-11-30T22:59:12.590Z,99912.47
2022-11-30T23:02:28.858Z,99911.61
2022-11-30T23:05:45.642Z,99912.20
2022-11-30T23:09:02.274Z,99913.55
2022-11-30T23:12:36.178Z,99902.19
2022-11-30T23:15:36.474Z,99902.03
2022-11-30T23:18:54.794Z,99902.03
2022-11-30T23:22:10.841Z,99899.33
2022-11-30T23:25:27.558Z,99902.67
2022-11-30T23:28:45.199Z,99898.47
2022-11-30T23:32:01.327Z,99892.32
2022-11-30T23:35:19.562Z,99891.30
2022-11-30T23:38:35.744Z,99884.33
2022-11-30T23:41:52.860Z,99879.78
2022-11-30T23:45:09.015Z,99886.84
2022-11-30T23:48:25.576Z,99884.14
2022-11-30T23:51:41.792Z,99878.00
2022-11-30T23:54:57.831Z,99872.02
2022-11-30T23:58:14.147Z,99868.58
